sensor_id;sensor_type;location;lat;lon;timestamp;temperature;humidity
31975;DHT22;18500;43.618;1.474;2023-06-26T15:16:24;26.60;1.00
31975;DHT22;18500;43.618;1.474;2023-06-26T15:18:50;26.80;1.00
31975;DHT22;18500;43.618;1.474;2023-06-26T15:21:16;26.80;1.00
31975;DHT22;18500;43.618;1.474;2023-06-26T15:23:41;26.70;1.00
31975;DHT22;18500;43.618;1.474;2023-06-26T15:26:07;26.90;1.00
31975;DHT22;18500;43.618;1.474;2023-06-26T15:28:32;27.00;1.00
31975;DHT22;18500;43.618;1.474;2023-06-26T15:30:59;26.80;1.00
31975;DHT22;18500;43.618;1.474;2023-06-26T15:33:24;27.00;1.00
31975;DHT22;18500;43.618;1.474;2023-06-26T15:35:50;26.70;1.00
31975;DHT22;18500;43.618;1.474;2023-06-26T15:38:15;26.40;1.00
31975;DHT22;18500;43.618;1.474;2023-06-26T15:40:41;26.60;1.00
31975;DHT22;18500;43.618;1.474;2023-06-26T15:43:06;26.70;1.00
31975;DHT22;18500;43.618;1.474;2023-06-26T15:45:32;26.60;1.00
31975;DHT22;18500;43.618;1.474;2023-06-26T15:47:57;27.20;1.00
31975;DHT22;18500;43.618;1.474;2023-06-26T15:50:23;27.50;1.00
31975;DHT22;18500;43.618;1.474;2023-06-26T15:52:48;27.60;1.00
31975;DHT22;18500;43.618;1.474;2023-06-26T15:55:14;26.70;1.00
31975;DHT22;18500;43.618;1.474;2023-06-26T15:57:40;26.30;1.00
31975;DHT22;18500;43.618;1.474;2023-06-26T16:00:06;26.20;1.00
31975;DHT22;18500;43.618;1.474;2023-06-26T16:02:32;26.20;1.00
31975;DHT22;18500;43.618;1.474;2023-06-26T16:04:57;26.10;1.00
31975;DHT22;18500;43.618;1.474;2023-06-26T16:07:23;26.60;1.00
31975;DHT22;18500;43.618;1.474;2023-06-26T16:09:48;26.60;1.00
31975;DHT22;18500;43.618;1.474;2023-06-26T16:12:14;26.30;1.00
31975;DHT22;18500;43.618;1.474;2023-06-26T16:14:40;26.50;1.00
31975;DHT22;18500;43.618;1.474;2023-06-26T16:17:06;26.00;1.00
31975;DHT22;18500;43.618;1.474;2023-06-26T16:19:31;26.10;1.00
31975;DHT22;18500;43.618;1.474;2023-06-26T16:21:57;26.20;1.00
31975;DHT22;18500;43.618;1.474;2023-06-26T16:24:23;26.10;1.00
31975;DHT22;18500;43.618;1.474;2023-06-26T16:26:48;26.10;1.00
31975;DHT22;18500;43.618;1.474;2023-06-26T16:29:14;25.90;1.00
31975;DHT22;18500;43.618;1.474;2023-06-26T16:31:39;25.70;1.00
31975;DHT22;18500;43.618;1.474;2023-06-26T16:34:05;25.90;1.00
31975;DHT22;18500;43.618;1.474;2023-06-26T16:36:30;26.10;1.00
31975;DHT22;18500;43.618;1.474;2023-06-26T16:38:56;26.20;1.00
31975;DHT22;18500;43.618;1.474;2023-06-26T16:41:21;26.10;1.00
31975;DHT22;18500;43.618;1.474;2023-06-26T16:43:49;26.30;1.00
31975;DHT22;18500;43.618;1.474;2023-06-26T16:46:14;26.50;1.00
31975;DHT22;18500;43.618;1.474;2023-06-26T16:48:40;26.50;1.00
31975;DHT22;18500;43.618;1.474;2023-06-26T16:51:05;26.00;1.00
31975;DHT22;18500;43.618;1.474;2023-06-26T16:53:31;25.80;1.00
31975;DHT22;18500;43.618;1.474;2023-06-26T16:55:56;26.00;1.00
31975;DHT22;18500;43.618;1.474;2023-06-26T16:58:22;26.20;1.00
31975;DHT22;18500;43.618;1.474;2023-06-26T17:00:47;26.30;1.00
31975;DHT22;18500;43.618;1.474;2023-06-26T17:03:13;26.40;1.00
31975;DHT22;18500;43.618;1.474;2023-06-26T17:05:39;26.10;1.00
31975;DHT22;18500;43.618;1.474;2023-06-26T17:08:05;25.90;1.00
31975;DHT22;18500;43.618;1.474;2023-06-26T17:10:32;25.80;1.00
31975;DHT22;18500;43.618;1.474;2023-06-26T17:12:58;25.90;1.00
31975;DHT22;18500;43.618;1.474;2023-06-26T17:15:24;26.00;1.00
31975;DHT22;18500;43.618;1.474;2023-06-26T17:17:49;25.90;1.00
31975;DHT22;18500;43.618;1.474;2023-06-26T17:20:15;25.70;1.00
31975;DHT22;18500;43.618;1.474;2023-06-26T17:22:40;25.70;1.00
31975;DHT22;18500;43.618;1.474;2023-06-26T17:25:08;25.60;1.00
31975;DHT22;18500;43.618;1.474;2023-06-26T17:27:37;25.40;1.00
31975;DHT22;18500;43.618;1.474;2023-06-26T17:30:03;25.40;1.00
31975;DHT22;18500;43.618;1.474;2023-06-26T17:32:28;25.40;1.00
31975;DHT22;18500;43.618;1.474;2023-06-26T17:34:54;25.30;1.00
31975;DHT22;18500;43.618;1.474;2023-06-26T17:37:20;25.20;1.00
31975;DHT22;18500;43.618;1.474;2023-06-26T17:39:48;25.10;1.00
31975;DHT22;18500;43.618;1.474;2023-06-26T17:42:14;24.90;1.00
31975;DHT22;18500;43.618;1.474;2023-06-26T17:44:40;24.90;1.00
31975;DHT22;18500;43.618;1.474;2023-06-26T17:47:05;24.90;1.00
31975;DHT22;18500;43.618;1.474;2023-06-26T17:49:31;24.90;1.00
31975;DHT22;18500;43.618;1.474;2023-06-26T17:51:56;24.90;1.00
31975;DHT22;18500;43.618;1.474;2023-06-26T17:54:22;24.80;1.00
31975;DHT22;18500;43.618;1.474;2023-06-26T17:56:47;24.90;1.00
31975;DHT22;18500;43.618;1.474;2023-06-26T17:59:13;24.80;1.00
31975;DHT22;18500;43.618;1.474;2023-06-26T18:01:39;24.70;1.00
31975;DHT22;18500;43.618;1.474;2023-06-26T18:04:05;24.70;1.00
31975;DHT22;18500;43.618;1.474;2023-06-26T18:06:31;24.70;1.00
31975;DHT22;18500;43.618;1.474;2023-06-26T18:08:56;24.60;1.00
31975;DHT22;18500;43.618;1.474;2023-06-26T18:11:22;24.60;1.00
31975;DHT22;18500;43.618;1.474;2023-06-26T18:13:47;24.60;1.00
31975;DHT22;18500;43.618;1.474;2023-06-26T18:16:13;24.50;1.00
31975;DHT22;18500;43.618;1.474;2023-06-26T18:18:38;24.50;1.00
31975;DHT22;18500;43.618;1.474;2023-06-26T18:21:04;24.50;1.00
31975;DHT22;18500;43.618;1.474;2023-06-26T18:23:30;24.50;1.00
31975;DHT22;18500;43.618;1.474;2023-06-26T18:25:55;24.40;1.00
31975;DHT22;18500;43.618;1.474;2023-06-26T18:28:21;24.40;1.00
31975;DHT22;18500;43.618;1.474;2023-06-26T18:30:46;24.40;1.00
31975;DHT22;18500;43.618;1.474;2023-06-26T18:33:12;24.40;1.00
31975;DHT22;18500;43.618;1.474;2023-06-26T18:35:37;24.40;1.00
31975;DHT22;18500;43.618;1.474;2023-06-26T18:38:03;24.40;1.00
31975;DHT22;18500;43.618;1.474;2023-06-26T18:40:30;24.40;1.00
31975;DHT22;18500;43.618;1.474;2023-06-26T18:42:55;24.40;1.00
31975;DHT22;18500;43.618;1.474;2023-06-26T18:45:22;24.40;1.00
31975;DHT22;18500;43.618;1.474;2023-06-26T18:47:47;24.40;1.00
31975;DHT22;18500;43.618;1.474;2023-06-26T18:50:13;24.30;1.00
31975;DHT22;18500;43.618;1.474;2023-06-26T18:52:40;24.30;1.00
31975;DHT22;18500;43.618;1.474;2023-06-26T18:55:06;24.20;1.00
31975;DHT22;18500;43.618;1.474;2023-06-26T18:57:31;24.10;1.00
31975;DHT22;18500;43.618;1.474;2023-06-26T18:59:57;24.00;1.00
31975;DHT22;18500;43.618;1.474;2023-06-26T19:02:23;24.00;1.00
31975;DHT22;18500;43.618;1.474;2023-06-26T19:04:48;24.00;1.00
31975;DHT22;18500;43.618;1.474;2023-06-26T19:07:14;24.00;1.00
31975;DHT22;18500;43.618;1.474;2023-06-26T19:09:39;24.00;1.00
31975;DHT22;18500;43.618;1.474;2023-06-26T19:12:05;23.90;1.00
31975;DHT22;18500;43.618;1.474;2023-06-26T19:14:31;23.90;1.00
31975;DHT22;18500;43.618;1.474;2023-06-26T19:16:56;23.80;1.00
31975;DHT22;18500;43.618;1.474;2023-06-26T19:19:22;23.80;1.00
31975;DHT22;18500;43.618;1.474;2023-06-26T19:21:47;23.70;1.00
31975;DHT22;18500;43.618;1.474;2023-06-26T19:24:13;23.60;1.00
31975;DHT22;18500;43.618;1.474;2023-06-26T19:26:38;23.60;1.00
31975;DHT22;18500;43.618;1.474;2023-06-26T19:29:04;23.60;1.00
31975;DHT22;18500;43.618;1.474;2023-06-26T19:31:29;23.50;1.00
31975;DHT22;18500;43.618;1.474;2023-06-26T19:33:55;23.50;1.00
31975;DHT22;18500;43.618;1.474;2023-06-26T19:36:21;23.60;1.00
31975;DHT22;18500;43.618;1.474;2023-06-26T19:38:47;23.60;1.00
31975;DHT22;18500;43.618;1.474;2023-06-26T19:41:13;23.50;1.00
31975;DHT22;18500;43.618;1.474;2023-06-26T19:43:38;23.40;1.00
31975;DHT22;18500;43.618;1.474;2023-06-26T19:46:04;23.40;1.00
31975;DHT22;18500;43.618;1.474;2023-06-26T19:48:29;23.40;1.00
31975;DHT22;18500;43.618;1.474;2023-06-26T19:50:55;23.20;1.00
31975;DHT22;18500;43.618;1.474;2023-06-26T19:53:20;23.20;1.00
31975;DHT22;18500;43.618;1.474;2023-06-26T19:55:46;23.20;1.00
31975;DHT22;18500;43.618;1.474;2023-06-26T19:58:11;23.10;1.00
31975;DHT22;18500;43.618;1.474;2023-06-26T20:00:37;23.00;1.00
31975;DHT22;18500;43.618;1.474;2023-06-26T20:03:03;22.90;1.00
31975;DHT22;18500;43.618;1.474;2023-06-26T20:05:29;22.80;1.00
31975;DHT22;18500;43.618;1.474;2023-06-26T20:07:56;22.90;1.00
31975;DHT22;18500;43.618;1.474;2023-06-26T20:10:21;22.80;1.00
31975;DHT22;18500;43.618;1.474;2023-06-26T20:12:47;22.70;1.00
31975;DHT22;18500;43.618;1.474;2023-06-26T20:15:12;22.70;1.00
31975;DHT22;18500;43.618;1.474;2023-06-26T20:17:38;22.60;1.00
31975;DHT22;18500;43.618;1.474;2023-06-26T20:20:04;22.60;1.00
31975;DHT22;18500;43.618;1.474;2023-06-26T20:22:31;22.60;1.00
31975;DHT22;18500;43.618;1.474;2023-06-26T20:24:57;22.60;1.00
31975;DHT22;18500;43.618;1.474;2023-06-26T20:27:23;22.70;1.00
31975;DHT22;18500;43.618;1.474;2023-06-26T20:29:48;22.60;1.00
31975;DHT22;18500;43.618;1.474;2023-06-26T20:32:14;22.50;1.00
31975;DHT22;18500;43.618;1.474;2023-06-26T20:34:39;22.50;1.00
31975;DHT22;18500;43.618;1.474;2023-06-26T20:37:05;22.50;1.00
31975;DHT22;18500;43.618;1.474;2023-06-26T20:39:31;22.40;1.00
31975;DHT22;18500;43.618;1.474;2023-06-26T20:41:57;22.40;1.00
31975;DHT22;18500;43.618;1.474;2023-06-26T20:44:22;22.40;1.00
31975;DHT22;18500;43.618;1.474;2023-06-26T20:46:49;22.30;1.00
31975;DHT22;18500;43.618;1.474;2023-06-26T20:49:24;22.20;1.00
31975;DHT22;18500;43.618;1.474;2023-06-26T20:51:50;22.20;1.00
31975;DHT22;18500;43.618;1.474;2023-06-26T20:54:16;22.30;1.00
31975;DHT22;18500;43.618;1.474;2023-06-26T20:56:42;22.40;1.00
31975;DHT22;18500;43.618;1.474;2023-06-26T20:59:07;22.40;1.00
31975;DHT22;18500;43.618;1.474;2023-06-26T21:01:33;22.30;1.00
31975;DHT22;18500;43.618;1.474;2023-06-26T21:03:58;22.30;1.00
31975;DHT22;18500;43.618;1.474;2023-06-26T21:06:24;22.20;1.00
31975;DHT22;18500;43.618;1.474;2023-06-26T21:08:49;22.10;1.00
31975;DHT22;18500;43.618;1.474;2023-06-26T21:11:15;22.10;1.00
31975;DHT22;18500;43.618;1.474;2023-06-26T21:13:40;22.00;1.00
31975;DHT22;18500;43.618;1.474;2023-06-26T21:16:06;21.90;1.00
31975;DHT22;18500;43.618;1.474;2023-06-26T21:18:31;21.90;1.00
31975;DHT22;18500;43.618;1.474;2023-06-26T21:20:57;22.00;1.00
31975;DHT22;18500;43.618;1.474;2023-06-26T21:23:22;22.00;1.00
31975;DHT22;18500;43.618;1.474;2023-06-26T21:25:48;22.00;1.00
31975;DHT22;18500;43.618;1.474;2023-06-26T21:28:14;22.10;1.00
31975;DHT22;18500;43.618;1.474;2023-06-26T21:30:39;22.00;1.00
31975;DHT22;18500;43.618;1.474;2023-06-26T21:33:05;22.10;1.00
31975;DHT22;18500;43.618;1.474;2023-06-26T21:35:30;22.20;1.00
31975;DHT22;18500;43.618;1.474;2023-06-26T21:37:56;22.30;1.00
31975;DHT22;18500;43.618;1.474;2023-06-26T21:40:21;22.30;1.00
31975;DHT22;18500;43.618;1.474;2023-06-26T21:42:47;22.20;1.00
31975;DHT22;18500;43.618;1.474;2023-06-26T21:45:12;22.20;1.00
31975;DHT22;18500;43.618;1.474;2023-06-26T21:47:38;22.30;1.00
31975;DHT22;18500;43.618;1.474;2023-06-26T21:50:03;22.30;1.00
31975;DHT22;18500;43.618;1.474;2023-06-26T21:52:29;22.30;1.00
31975;DHT22;18500;43.618;1.474;2023-06-26T21:54:55;22.20;1.00
